Rain radar more information rain snow radar


Visit our other weather sites:

Template documentation
and downloads

And another site



Nearby METAR Reports

   
KTIW - Tacoma, Washington, USA
Distance from station: W 7 mi
Updated: Feb 23 2020 1:53 pm
Mostly Cloudy  
Mostly Cloudy  
   Wind: SW 17.3 mph<br />Gust to 17.3 mph
Wind: SW 17.3 mph
Gust to 17.3 mph
Temperature: 44.6°F
Wind Chill: 37.4°F
Dew Point: 37.4°F
Humidity: 76%
Barometer: 30.02 inHg
Clouds: Mostly Cloudy
Visibility: 10 mi
Cloud details: Partly Cloudy 793 m,
Mostly Cloudy 1006 m
KTIW 232153Z 22015G27KT 10SM SCT026 BKN033 07/03 A3002 RMK AO2 PK WND 24031/2116 SLP169 T00720033 $
KTCM - Tacoma/Mc Chord, Washington, USA
Distance from station: S 9 mi
Updated: Feb 23 2020 1:58 pm
Light Rain, Overcast  
Light Rain, Overcast  
   Wind: WSW 29.9 mph<br />Gust to 29.9 mph
Wind: WSW 29.9 mph
Gust to 29.9 mph
Temperature: 44.6°F
Wind Chill: 35.6°F
Dew Point: 37.4°F
Humidity: 76%
Barometer: 30.05 inHg
Clouds: Overcast
Visibility: 10 mi
Cloud details: Mostly Cloudy 671 m,
Overcast 914 m
KTCM 232158Z AUTO 24026G34KT 10SM -RA BKN022 OVC030 07/03 A3005 RMK AO2 RAE14DZB14E16RAB30E47RAB52 CIG 020 RWY34 SLP182 P0002 T00700031 $
KSEA - Seattle/Metro, Washington, USA
Distance from station: NNE 15 mi
Updated: Feb 23 2020 1:53 pm
Mostly Cloudy  
Mostly Cloudy  
   Wind: SW 17.3 mph<br />Gust to 17.3 mph
Wind: SW 17.3 mph
Gust to 17.3 mph
Temperature: 48.2°F
Wind Chill: 42.8°F
Dew Point: 39.2°F
Humidity: 71%
Barometer: 30 inHg
Clouds: Mostly Cloudy
Visibility: 10 mi
Cloud details: Few Clouds 518 m,
Mostly Cloudy 793 m,
Mostly Cloudy 1006 m
KSEA 232153Z 22015G25KT 10SM FEW017 BKN026 BKN033 09/04 A3000 RMK AO2 PK WND 21030/2124 SLP168 T00890039
KBFI - Seattle/Boeing, Washington, USA
Distance from station: NNE 21 mi
Updated: Feb 23 2020 1:53 pm
Mostly Cloudy  
Mostly Cloudy  
   Wind: SSW 19.6 mph<br />Gust to 19.6 mph
Wind: SSW 19.6 mph
Gust to 19.6 mph
Temperature: 48.2°F
Wind Chill: 41°F
Dew Point: 37.4°F
Humidity: 66%
Barometer: 30.01 inHg
Clouds: Mostly Cloudy
Visibility: 10 mi
Cloud details: Mostly Cloudy 793 m
KBFI 232153Z 20017G25KT 10SM BKN026 09/03 A3001 RMK AO2 SLP161 T00940028
KOLM - Olympia, Washington, USA
Distance from station: SW 29 mi
Updated: Feb 23 2020 1:54 pm
Light Rain, Mostly Cloudy  
Light Rain, Mostly Cloudy  
   Wind: West 20.7 mph<br />Gust to 20.7 mph
Wind: West 20.7 mph
Gust to 20.7 mph
Temperature: 48.2°F
Wind Chill: 41°F
Dew Point: 39.2°F
Humidity: 71%
Barometer: 30.06 inHg
Clouds: Mostly Cloudy
Visibility: 10 mi
Cloud details: Few Clouds 793 m,
Partly Cloudy 1067 m,
Mostly Cloudy 1219 m
KOLM 232154Z 27018G28KT 10SM -RA FEW026 SCT035 BKN040 09/04 A3006 RMK AO2 PK WND 29028/2153 SLP181 P0001 T00890039
 

Script developed by  Saratoga-weather.org Adapted for the template by  Weerstation Leuven

You find our weather info also at:

Weather Underground

WeatherlinkIP

Citizen Weather Observer Program (CWOP)

Equipment we use:

Weather-station
Davis VP2

Weather-program
Meteobridge

Provider
MDD Hosting

Davis VP2

Meteobridge

MDD Hosting